Time;durP1;ratioP1;P1;durP2;ratioP2;P2;SDS_P1;SDS_P2;PMS_P1;PMS_P2;Temp;Humidity;BMP_temperature;BMP_pressure;BME280_temperature;BME280_humidity;BME280_pressure;Samples;Min_cycle;Max_cycle;Signal;HPM_P1;HPM_P2
2023/06/28 00:00:43;;;;;;;5.45;2.38;;;;;;;17.51;71.49;101808.25;5002802;28;20033;-48
2023/06/28 00:03:10;;;;;;;7.50;2.30;;;;;;;17.50;71.25;101813.75;5003068;28;20021;-48
2023/06/28 00:05:36;;;;;;;7.90;2.50;;;;;;;17.48;72.69;101813.88;4997712;28;20027;-48
2023/06/28 00:08:02;;;;;;;5.45;2.17;;;;;;;17.47;70.84;101808.66;5003231;28;20030;-49
2023/06/28 00:10:27;;;;;;;6.90;2.25;;;;;;;17.46;70.67;101813.19;5003113;28;20184;-49
2023/06/28 00:12:52;;;;;;;4.60;2.10;;;;;;;17.43;71.71;101810.78;5002507;28;20073;-49
2023/06/28 00:15:18;;;;;;;6.18;2.00;;;;;;;17.46;71.53;101821.25;5004838;28;20442;-50
2023/06/28 00:17:43;;;;;;;6.95;2.28;;;;;;;17.45;71.72;101816.84;5003019;28;20026;-48
2023/06/28 00:20:10;;;;;;;4.28;2.10;;;;;;;17.45;72.27;101816.00;5000456;28;20038;-51
2023/06/28 00:22:35;;;;;;;4.97;2.15;;;;;;;17.42;73.32;101809.09;5003031;28;20029;-48
2023/06/28 00:25:03;;;;;;;4.28;2.17;;;;;;;17.39;72.47;101812.88;4999660;28;20081;-48
2023/06/28 00:27:29;;;;;;;8.20;2.22;;;;;;;17.40;73.24;101813.72;5003440;28;20022;-48
2023/06/28 00:29:55;;;;;;;4.35;2.00;;;;;;;17.41;73.19;101822.66;4999565;28;20081;-48
2023/06/28 00:32:21;;;;;;;7.10;2.28;;;;;;;17.38;73.72;101813.03;5002873;28;20437;-48
2023/06/28 00:34:46;;;;;;;5.13;2.03;;;;;;;17.42;73.94;101818.97;4999612;28;20133;-48
2023/06/28 00:37:12;;;;;;;7.22;2.47;;;;;;;17.45;74.51;101818.69;5002649;28;20057;-48
2023/06/28 00:39:37;;;;;;;6.97;1.77;;;;;;;17.44;75.63;101822.38;5000718;28;20488;-48
2023/06/28 00:42:03;;;;;;;6.20;2.22;;;;;;;17.45;77.68;101824.06;5003751;28;20088;-49
2023/06/28 00:44:28;;;;;;;4.45;2.20;;;;;;;17.44;78.29;101822.38;4999932;28;20065;-47
2023/06/28 00:46:57;;;;;;;5.57;2.28;;;;;;;17.41;78.95;101818.13;5001297;28;20027;-47
2023/06/28 00:49:26;;;;;;;6.88;2.13;;;;;;;17.42;78.47;101822.53;4999051;28;20018;-48
2023/06/28 00:51:53;;;;;;;6.10;2.40;;;;;;;17.43;78.12;101818.00;4995337;28;20431;-48
2023/06/28 00:54:19;;;;;;;7.85;2.80;;;;;;;17.41;78.46;101818.13;4998562;28;20026;-48
2023/06/28 00:56:46;;;;;;;4.80;2.10;;;;;;;17.41;76.67;101812.75;5002247;28;20036;-48
2023/06/28 00:59:13;;;;;;;5.00;2.58;;;;;;;17.43;76.90;101816.16;4998688;28;20076;-48
2023/06/28 01:01:39;;;;;;;7.32;2.63;;;;;;;17.41;78.57;101810.06;5001671;28;20028;-48
2023/06/28 01:04:06;;;;;;;5.45;2.30;;;;;;;17.37;78.19;101812.19;4998543;28;20022;-48
2023/06/28 01:06:35;;;;;;;8.43;2.60;;;;;;;17.36;78.98;101820.38;5002534;28;20037;-48
2023/06/28 01:09:07;;;;;;;4.75;2.45;;;;;;;17.36;79.20;101817.69;5000483;28;20026;-48
2023/06/28 01:11:33;;;;;;;6.05;2.58;;;;;;;17.35;79.98;101824.03;4996591;28;20034;-48
2023/06/28 01:13:59;;;;;;;5.45;2.63;;;;;;;17.42;78.65;101816.28;4997691;28;20031;-48
2023/06/28 01:16:24;;;;;;;6.35;2.40;;;;;;;17.37;78.94;101833.66;5001911;28;20030;-48
2023/06/28 01:18:50;;;;;;;6.60;2.40;;;;;;;17.37;79.09;101822.09;4998061;28;20030;-48
2023/06/28 01:21:17;;;;;;;4.72;2.20;;;;;;;17.37;79.15;101822.09;5000843;28;20036;-48
2023/06/28 01:23:44;;;;;;;6.32;2.47;;;;;;;17.36;80.18;101821.22;4998899;28;20018;-48
2023/06/28 01:26:11;;;;;;;6.10;2.40;;;;;;;17.36;78.82;101815.00;5000643;28;20114;-48
2023/06/28 01:28:37;;;;;;;5.85;2.80;;;;;;;17.38;80.34;101811.19;4999201;28;20091;-48
2023/06/28 01:31:03;;;;;;;11.25;2.67;;;;;;;17.35;79.88;101818.66;4999963;28;20074;-48
2023/06/28 01:33:29;;;;;;;8.50;2.95;;;;;;;17.32;80.66;101811.75;5001629;28;20399;-49
2023/06/28 01:35:56;;;;;;;6.38;2.50;;;;;;;17.29;80.39;101814.72;5002453;28;20021;-48
2023/06/28 01:38:22;;;;;;;10.65;3.55;;;;;;;17.30;81.50;101813.75;4999957;28;20476;-48
2023/06/28 01:40:51;;;;;;;6.93;2.78;;;;;;;17.28;81.48;101812.16;5000482;28;20037;-48
2023/06/28 01:43:17;;;;;;;;;;;;;;;17.43;77.08;101810.78;5000054;28;20026;-48
2023/06/28 01:45:42;;;;;;;9.05;2.97;;;;;;;17.33;80.89;101808.06;5000903;28;19917;-48
2023/06/28 01:48:07;;;;;;;9.85;2.88;;;;;;;17.31;81.99;101810.06;5002374;28;20109;-48
2023/06/28 01:50:33;;;;;;;7.57;3.67;;;;;;;17.26;82.22;101806.09;5001420;28;20479;-48
2023/06/28 01:53:01;;;;;;;7.97;3.50;;;;;;;17.28;81.49;101798.75;5001069;28;20380;-48
2023/06/28 01:55:26;;;;;;;9.55;3.63;;;;;;;17.18;81.71;101802.22;4999565;28;20092;-48
2023/06/28 01:57:52;;;;;;;7.38;3.40;;;;;;;17.13;83.37;101804.47;4999623;28;20468;-48
2023/06/28 02:00:17;;;;;;;8.05;3.65;;;;;;;17.10;82.11;101803.91;5000295;28;20487;-48
2023/06/28 02:02:43;;;;;;;6.82;3.35;;;;;;;17.01;82.56;101803.75;4999717;28;20088;-47
2023/06/28 02:05:08;;;;;;;7.78;3.75;;;;;;;16.97;82.30;101802.34;4996596;28;20037;-48
2023/06/28 02:07:34;;;;;;;9.65;4.15;;;;;;;16.92;82.18;101798.34;5003284;28;20033;-48
2023/06/28 02:09:59;;;;;;;9.27;4.53;;;;;;;16.88;82.41;101795.09;4998805;28;20018;-47
2023/06/28 02:12:24;;;;;;;11.40;4.43;;;;;;;16.87;81.86;101795.22;4996088;28;20379;-47
2023/06/28 02:14:53;;;;;;;8.23;3.80;;;;;;;16.83;82.70;101791.94;5000005;28;20026;-47
2023/06/28 02:17:20;;;;;;;9.88;3.65;;;;;;;16.85;82.79;101794.50;5001156;28;20034;-48
2023/06/28 02:19:49;;;;;;;6.78;3.50;;;;;;;16.86;81.74;101798.91;5000344;28;20037;-48
2023/06/28 02:22:19;;;;;;;6.95;3.70;;;;;;;16.84;82.29;101793.63;4998455;28;20030;-48
2023/06/28 02:24:44;;;;;;;;;;;;;;;16.95;78.82;101790.91;5000383;28;20530;-48
2023/06/28 02:27:09;;;;;;;7.77;3.13;;;;;;;16.85;81.19;101789.16;4999208;28;19917;-48
2023/06/28 02:29:35;;;;;;;11.75;3.70;;;;;;;16.83;81.44;101783.88;5001070;28;20023;-48
2023/06/28 02:32:02;;;;;;;9.57;3.60;;;;;;;16.86;81.93;101780.13;5001500;28;20027;-48
2023/06/28 02:34:28;;;;;;;8.45;3.92;;;;;;;16.86;81.47;101782.81;5000765;28;20129;-48
2023/06/28 02:36:53;;;;;;;7.90;4.07;;;;;;;16.82;82.43;101783.03;4999897;28;20128;-48
2023/06/28 02:39:19;;;;;;;9.02;3.58;;;;;;;16.85;82.19;101783.78;5004129;28;20030;-48
2023/06/28 02:41:44;;;;;;;6.10;3.33;;;;;;;16.83;83.24;101784.72;5001408;28;20432;-48
2023/06/28 02:44:09;;;;;;;11.70;3.80;;;;;;;16.81;82.83;101783.19;4999227;28;20503;-48
2023/06/28 02:46:35;;;;;;;11.40;4.53;;;;;;;16.81;84.12;101778.66;4994730;28;20044;-48
2023/06/28 02:49:00;;;;;;;7.57;3.60;;;;;;;16.85;86.04;101781.94;5000319;28;20029;-49
2023/06/28 02:51:25;;;;;;;11.75;4.03;;;;;;;16.88;84.65;101784.34;4997164;28;20041;-48
2023/06/28 02:53:51;;;;;;;8.63;3.63;;;;;;;16.88;86.42;101784.34;4997794;28;20550;-48
2023/06/28 02:56:16;;;;;;;9.00;3.30;;;;;;;16.92;85.66;101784.94;5001925;28;20057;-48
2023/06/28 02:58:42;;;;;;;12.30;3.80;;;;;;;16.92;87.23;101782.25;5001301;28;20026;-48
2023/06/28 03:01:09;;;;;;;6.53;3.63;;;;;;;16.90;88.03;101787.75;4999862;28;20049;-48
2023/06/28 03:03:34;;;;;;;7.18;3.33;;;;;;;16.93;88.11;101787.47;4999558;28;20030;-48
2023/06/28 03:06:00;;;;;;;7.88;3.42;;;;;;;16.91;87.71;101781.41;4997552;28;20434;-48
2023/06/28 03:08:26;;;;;;;8.60;3.67;;;;;;;16.90;90.37;101785.06;4994519;28;20122;-49
2023/06/28 03:10:51;;;;;;;9.30;3.60;;;;;;;16.93;87.70;101787.47;4998880;28;20260;-49
2023/06/28 03:13:16;;;;;;;10.13;3.17;;;;;;;16.93;nan;101786.63;4997563;28;20036;-48
2023/06/28 03:15:42;;;;;;;6.63;3.53;;;;;;;16.93;89.27;101786.63;5000027;28;20037;-48
2023/06/28 03:18:07;;;;;;;9.75;3.53;;;;;;;16.87;88.15;101782.69;5003164;28;20022;-48
2023/06/28 03:20:32;;;;;;;10.82;4.15;;;;;;;16.81;89.48;101778.66;5005073;28;20157;-48
2023/06/28 03:22:58;;;;;;;7.45;3.67;;;;;;;16.81;87.39;101781.34;5004120;28;20022;-48
2023/06/28 03:25:23;;;;;;;10.82;4.15;;;;;;;16.77;86.58;101781.72;5000555;28;20077;-48
2023/06/28 03:27:49;;;;;;;8.13;3.72;;;;;;;16.71;88.67;101771.56;5000098;28;20019;-48
2023/06/28 03:30:15;;;;;;;9.60;3.50;;;;;;;16.73;88.63;101774.94;5005474;28;20025;-48
2023/06/28 03:32:40;;;;;;;9.20;3.63;;;;;;;16.64;88.22;101773.94;5003115;28;20034;-48
2023/06/28 03:35:06;;;;;;;6.82;3.72;;;;;;;16.57;88.92;101775.44;5002478;28;20047;-51
2023/06/28 03:37:32;;;;;;;7.38;3.67;;;;;;;16.53;88.75;101777.53;5005555;28;20026;-48
2023/06/28 03:39:58;;;;;;;10.68;3.92;;;;;;;16.50;90.27;101774.28;5000955;28;20022;-48
2023/06/28 03:42:23;;;;;;;11.27;4.18;;;;;;;16.54;89.56;101775.72;5006438;28;20077;-48
2023/06/28 03:44:48;;;;;;;7.80;3.42;;;;;;;16.53;90.65;101774.03;5002743;28;20085;-48
2023/06/28 03:47:14;;;;;;;10.90;4.05;;;;;;;16.52;90.88;101775.88;5003302;28;20022;-47
2023/06/28 03:49:40;;;;;;;12.25;4.47;;;;;;;16.57;91.57;101770.06;5004627;28;20036;-48
2023/06/28 03:52:06;;;;;;;8.80;3.92;;;;;;;16.56;90.92;101773.75;5005120;28;20033;-48
2023/06/28 03:54:32;;;;;;;9.15;4.03;;;;;;;16.52;90.51;101775.88;5001480;28;20499;-48
2023/06/28 03:56:58;;;;;;;6.95;3.90;;;;;;;16.42;91.19;101765.09;5002700;28;20049;-48
2023/06/28 03:59:23;;;;;;;8.88;4.47;;;;;;;16.38;91.61;101763.63;5004895;28;20073;-49
2023/06/28 04:01:48;;;;;;;6.90;3.83;;;;;;;16.30;91.57;101766.13;5002792;28;20032;-48
2023/06/28 04:04:14;;;;;;;10.95;4.45;;;;;;;16.22;92.21;101760.56;5003218;28;20026;-47
2023/06/28 04:06:39;;;;;;;12.63;3.92;;;;;;;16.14;91.31;101757.69;4999968;28;20121;-48
2023/06/28 04:09:05;;;;;;;9.60;3.95;;;;;;;16.11;91.78;101766.03;5002791;28;20022;-48
2023/06/28 04:11:30;;;;;;;10.18;4.30;;;;;;;16.08;91.64;101761.78;5006919;28;20061;-48
2023/06/28 04:13:55;;;;;;;9.77;4.70;;;;;;;16.07;92.59;101754.69;5004776;28;20031;-48
2023/06/28 04:16:21;;;;;;;11.05;4.60;;;;;;;16.09;92.13;101758.97;5000466;28;20030;-48
2023/06/28 04:18:46;;;;;;;7.97;4.40;;;;;;;16.14;92.88;101763.06;5001582;28;20023;-48
2023/06/28 04:21:11;;;;;;;9.13;4.95;;;;;;;16.17;94.10;101762.81;5006316;28;20038;-50
2023/06/28 04:23:38;;;;;;;8.13;4.18;;;;;;;16.19;93.99;101761.69;5005547;28;20026;-49
2023/06/28 04:26:03;;;;;;;9.60;4.45;;;;;;;16.16;93.29;101766.47;5005910;28;20025;-48
2023/06/28 04:28:28;;;;;;;9.88;4.63;;;;;;;16.19;94.38;101760.88;5001013;28;20505;-48
2023/06/28 04:30:54;;;;;;;12.20;4.32;;;;;;;16.19;93.89;101758.19;4999940;28;20485;-48
2023/06/28 04:33:22;;;;;;;11.35;4.80;;;;;;;16.17;94.56;101769.03;5002523;28;20061;-48
2023/06/28 04:35:48;;;;;;;5.93;4.30;;;;;;;16.20;94.14;101767.91;5004320;28;20379;-51
2023/06/28 04:38:13;;;;;;;9.05;4.50;;;;;;;16.25;94.92;101769.22;5005683;28;20029;-48
2023/06/28 04:40:39;;;;;;;9.60;5.10;;;;;;;16.27;95.28;101763.72;5002097;28;20027;-48
2023/06/28 04:43:10;;;;;;;9.98;4.97;;;;;;;16.31;94.50;101765.16;5002328;28;20484;-48
2023/06/28 04:45:37;;;;;;;9.45;5.30;;;;;;;16.31;94.37;101769.69;5006091;28;20026;-48
2023/06/28 04:48:06;;;;;;;8.85;4.60;;;;;;;16.32;94.90;101766.88;4999258;28;20021;-48
2023/06/28 04:50:36;;;;;;;11.48;5.03;;;;;;;16.32;95.70;101758.81;5004720;28;20111;-49
2023/06/28 04:53:04;;;;;;;11.00;5.22;;;;;;;16.37;94.52;101758.41;5004958;28;20037;-48
2023/06/28 04:55:32;;;;;;;12.23;4.80;;;;;;;16.36;93.45;101762.94;5001658;28;20038;-48
2023/06/28 04:57:59;;;;;;;8.90;4.68;;;;;;;16.37;93.53;101764.63;5005102;28;20511;-48
2023/06/28 05:00:24;;;;;;;10.43;4.65;;;;;;;16.35;94.47;101771.09;5002492;28;20053;-49
2023/06/28 05:02:50;;;;;;;9.48;4.95;;;;;;;16.33;94.52;101760.50;4998916;28;20053;-48
2023/06/28 05:05:15;;;;;;;10.20;4.90;;;;;;;16.33;95.00;101757.81;5000834;28;20431;-48
2023/06/28 05:07:40;;;;;;;12.65;5.20;;;;;;;16.37;95.27;101763.75;5001449;28;20025;-48
2023/06/28 05:10:06;;;;;;;8.85;4.78;;;;;;;16.38;94.18;101768.16;5001283;28;20027;-48
2023/06/28 05:12:31;;;;;;;11.05;4.90;;;;;;;16.35;95.48;101757.69;5001367;28;20022;-47
2023/06/28 05:14:56;;;;;;;10.85;4.72;;;;;;;16.39;95.14;101761.81;5002018;28;20052;-48
2023/06/28 05:17:22;;;;;;;11.48;4.63;;;;;;;16.44;95.53;101764.94;5000972;28;20088;-48
2023/06/28 05:19:47;;;;;;;12.50;4.80;;;;;;;16.46;95.20;101781.75;5002247;28;20480;-48
2023/06/28 05:22:12;;;;;;;8.50;4.90;;;;;;;16.52;95.93;101780.34;5000758;28;20041;-47
2023/06/28 05:24:38;;;;;;;11.90;5.65;;;;;;;16.48;95.60;101769.03;4996794;28;20297;-47
2023/06/28 05:27:03;;;;;;;11.98;5.20;;;;;;;16.54;96.16;101779.25;4997399;28;20038;-48
2023/06/28 05:29:28;;;;;;;12.60;4.82;;;;;;;16.54;94.20;101765.84;5003163;28;20109;-48
2023/06/28 05:31:54;;;;;;;10.98;5.68;;;;;;;16.49;94.70;101765.41;5001660;28;20038;-47
2023/06/28 05:34:19;;;;;;;7.43;5.00;;;;;;;16.42;94.20;101758.84;5000201;28;20191;-48
2023/06/28 05:36:44;;;;;;;7.88;5.40;;;;;;;16.45;95.47;101763.94;5000163;28;20037;-51
2023/06/28 05:39:09;;;;;;;10.03;5.30;;;;;;;16.51;94.86;101765.25;4991227;28;20022;-48
2023/06/28 05:41:35;;;;;;;10.27;5.63;;;;;;;16.52;95.45;101762.44;4998676;28;20284;-48
2023/06/28 05:44:00;;;;;;;14.40;5.97;;;;;;;16.48;94.33;101752.97;4999280;28;20026;-48
2023/06/28 05:46:25;;;;;;;7.82;4.93;;;;;;;16.45;95.06;101748.72;4997142;28;20034;-48
2023/06/28 05:48:51;;;;;;;13.02;5.85;;;;;;;16.43;95.80;101749.84;4965383;28;20312;-48
2023/06/28 05:51:16;;;;;;;11.00;5.80;;;;;;;16.36;95.44;101746.84;4987601;28;20180;-48
2023/06/28 05:53:42;;;;;;;10.98;5.38;;;;;;;16.33;96.35;101741.72;4995204;28;20057;-48
2023/06/28 05:56:07;;;;;;;9.50;5.75;;;;;;;16.34;95.75;101745.28;4997601;28;20026;-48
2023/06/28 05:58:33;;;;;;;10.20;5.55;;;;;;;16.38;96.26;101744.03;5003356;28;20025;-48
2023/06/28 06:00:59;;;;;;;14.27;5.88;;;;;;;16.43;96.21;101750.66;4988839;28;20023;-49
2023/06/28 06:03:25;;;;;;;12.82;5.50;;;;;;;16.47;96.05;101751.28;4994259;28;20164;-48
2023/06/28 06:05:50;;;;;;;7.97;5.75;;;;;;;16.56;96.04;101749.63;5003883;28;20109;-48
2023/06/28 06:08:15;;;;;;;10.75;5.50;;;;;;;16.59;96.48;101744.00;4998804;28;20042;-49
2023/06/28 06:10:41;;;;;;;14.02;5.93;;;;;;;16.56;95.61;101749.63;4995945;28;20042;-48
2023/06/28 06:13:06;;;;;;;11.68;5.70;;;;;;;16.59;95.60;101741.31;5001764;28;20476;-48
2023/06/28 06:15:31;;;;;;;11.23;5.95;;;;;;;16.61;95.16;101750.06;4995474;28;20030;-48
2023/06/28 06:17:57;;;;;;;11.48;5.72;;;;;;;16.58;95.10;101747.66;4998191;28;20041;-48
2023/06/28 06:20:22;;;;;;;13.35;5.85;;;;;;;16.53;95.91;101741.84;4997063;28;20034;-49
2023/06/28 06:22:49;;;;;;;12.02;6.15;;;;;;;16.54;95.82;101746.22;4999395;28;20042;-48
2023/06/28 06:25:14;;;;;;;11.50;6.13;;;;;;;16.56;95.80;101754.97;4994783;28;20038;-49
2023/06/28 06:27:40;;;;;;;13.82;6.53;;;;;;;16.52;95.84;101751.72;4990085;28;20049;-48
2023/06/28 06:30:06;;;;;;;10.63;6.18;;;;;;;16.47;96.35;101753.97;4998243;28;20057;-48
2023/06/28 06:32:32;;;;;;;10.50;6.20;;;;;;;16.50;95.84;101755.50;4989137;28;20040;-48
2023/06/28 06:34:57;;;;;;;11.55;5.95;;;;;;;16.55;96.47;101758.63;4999046;28;20045;-48
2023/06/28 06:37:23;;;;;;;13.13;6.72;;;;;;;16.59;95.61;101755.56;4992315;28;20081;-48
2023/06/28 06:39:50;;;;;;;11.18;6.32;;;;;;;16.60;96.38;101753.72;4995429;28;20030;-49
2023/06/28 06:42:16;;;;;;;13.18;5.80;;;;;;;16.64;96.18;101755.16;4998549;28;20072;-48
2023/06/28 06:44:41;;;;;;;15.82;7.10;;;;;;;16.65;96.08;101756.84;4991442;28;20093;-48
2023/06/28 06:47:07;;;;;;;11.15;5.53;;;;;;;16.65;95.18;101754.16;4997737;28;20399;-48
2023/06/28 06:49:32;;;;;;;10.10;5.75;;;;;;;16.70;96.22;101759.97;4983866;28;20555;-48
2023/06/28 06:51:58;;;;;;;12.30;5.60;;;;;;;16.76;96.99;101754.06;4994382;28;20044;-48
2023/06/28 06:54:29;;;;;;;10.40;5.60;;;;;;;16.83;95.88;101752.53;4994319;28;20384;-49
2023/06/28 06:57:03;;;;;;;6.97;5.30;;;;;;;16.83;94.63;101765.94;4990209;28;20072;-48
2023/06/28 06:59:29;;;;;;;11.70;5.53;;;;;;;16.85;96.06;101755.09;4988350;28;20813;-47
2023/06/28 07:01:54;;;;;;;11.68;5.25;;;;;;;16.92;95.41;101758.09;4998697;28;20045;-48
2023/06/28 07:04:21;;;;;;;14.88;6.00;;;;;;;16.95;94.80;101766.75;4998594;28;20515;-48
2023/06/28 07:06:47;;;;;;;10.43;5.07;;;;;;;16.96;94.75;101764.91;4995137;28;20046;-48
2023/06/28 07:09:16;;;;;;;9.25;5.20;;;;;;;16.95;94.07;101763.19;4994517;28;20072;-48
2023/06/28 07:11:43;;;;;;;10.73;5.15;;;;;;;16.99;93.87;101770.84;5000659;28;20026;-48
2023/06/28 07:14:08;;;;;;;9.60;4.55;;;;;;;16.97;91.56;101774.63;4998130;28;20354;-48
2023/06/28 07:16:34;;;;;;;12.32;5.18;;;;;;;16.93;91.95;101770.53;4994781;28;20041;-48
2023/06/28 07:18:59;;;;;;;10.90;5.10;;;;;;;16.89;91.27;101780.69;4996307;28;20065;-50
2023/06/28 07:21:25;;;;;;;10.98;4.72;;;;;;;16.89;91.50;101775.31;4995468;28;20026;-48
2023/06/28 07:23:50;;;;;;;10.02;5.05;;;;;;;16.91;91.20;101777.88;4994449;28;20046;-48
2023/06/28 07:26:17;;;;;;;8.68;4.50;;;;;;;16.90;89.99;101776.16;4995390;28;20078;-47
2023/06/28 07:28:42;;;;;;;8.32;4.88;;;;;;;16.85;90.14;101783.78;4990942;28;20053;-48
2023/06/28 07:31:07;;;;;;;12.30;5.03;;;;;;;16.84;90.39;101785.59;4987369;28;20160;-48
2023/06/28 07:33:34;;;;;;;9.48;4.95;;;;;;;16.90;91.11;101781.53;4995295;28;20070;-48
2023/06/28 07:35:59;;;;;;;10.70;5.03;;;;;;;16.89;89.17;101774.50;4991254;28;20046;-48
2023/06/28 07:38:24;;;;;;;11.30;5.00;;;;;;;16.93;90.91;101778.59;4995661;28;20023;-48
2023/06/28 07:40:50;;;;;;;13.25;5.07;;;;;;;16.95;90.37;101774.78;5000508;28;20040;-49
2023/06/28 07:43:17;;;;;;;7.57;4.65;;;;;;;16.95;88.44;101779.28;4997547;28;20040;-48
2023/06/28 07:45:43;;;;;;;9.38;5.13;;;;;;;16.95;88.27;101785.53;4999019;28;20053;-48
2023/06/28 07:48:09;;;;;;;12.52;5.45;;;;;;;16.95;88.01;101785.53;4998737;28;20480;-48
2023/06/28 07:50:35;;;;;;;8.48;4.72;;;;;;;16.99;89.12;101780.72;4994570;28;20036;-48
2023/06/28 07:53:00;;;;;;;10.77;5.13;;;;;;;17.04;87.64;101781.16;4991173;28;20053;-50
2023/06/28 07:55:27;;;;;;;11.18;4.53;;;;;;;17.04;88.29;101774.94;4993792;28;20057;-48
2023/06/28 07:57:54;;;;;;;8.10;5.05;;;;;;;17.08;87.69;101773.69;4996556;28;20423;-48
2023/06/28 08:00:19;;;;;;;9.50;5.05;;;;;;;17.10;87.98;101777.06;4996333;28;20054;-48
2023/06/28 08:02:45;;;;;;;12.68;5.30;;;;;;;17.16;87.98;101771.16;4996051;28;20108;-49
2023/06/28 08:05:10;;;;;;;11.00;5.22;;;;;;;17.21;88.13;101776.97;5000843;28;20033;-50
2023/06/28 08:07:35;;;;;;;11.30;4.82;;;;;;;17.21;87.93;101771.59;5001285;28;20503;-48
2023/06/28 08:10:01;;;;;;;12.93;5.60;;;;;;;17.24;87.42;101768.63;4997466;28;20034;-49
2023/06/28 08:12:27;;;;;;;11.23;5.13;;;;;;;17.21;86.83;101779.66;4992024;28;20041;-49
2023/06/28 08:14:52;;;;;;;11.88;5.53;;;;;;;17.22;87.18;101776.00;4999426;28;20038;-51
2023/06/28 08:17:17;;;;;;;10.38;5.18;;;;;;;17.26;88.18;101769.34;4998849;28;20076;-48
2023/06/28 08:19:42;;;;;;;10.60;5.07;;;;;;;17.30;86.48;101767.22;4996700;28;20105;-51
2023/06/28 08:22:08;;;;;;;12.68;4.75;;;;;;;17.33;87.41;101761.56;5002117;28;20161;-48
2023/06/28 08:24:33;;;;;;;9.07;4.55;;;;;;;17.37;86.86;101769.22;5001692;28;20083;-48
2023/06/28 08:26:58;;;;;;;9.63;4.82;;;;;;;17.45;87.33;101768.50;5001550;28;20022;-48
2023/06/28 08:29:24;;;;;;;9.00;4.97;;;;;;;17.51;87.15;101765.25;5007844;28;20028;-48
2023/06/28 08:31:49;;;;;;;11.52;5.22;;;;;;;17.57;88.20;101764.72;5003751;28;20097;-48
2023/06/28 08:34:18;;;;;;;12.38;5.50;;;;;;;17.64;86.26;101777.59;5003224;28;20050;-50
2023/06/28 08:36:43;;;;;;;12.70;5.45;;;;;;;17.68;85.09;101776.31;5004234;28;20030;-48
2023/06/28 08:39:09;;;;;;;11.38;5.13;;;;;;;17.75;85.47;101777.44;5000514;28;20038;-49
2023/06/28 08:41:35;;;;;;;12.70;4.75;;;;;;;17.81;84.71;101776.03;5002051;28;20030;-48
2023/06/28 08:44:04;;;;;;;8.23;5.03;;;;;;;17.88;85.30;101774.50;4998274;28;20117;-48
2023/06/28 08:46:30;;;;;;;10.68;5.03;;;;;;;17.99;85.79;101768.13;5002063;28;20782;-48
2023/06/28 08:48:56;;;;;;;9.65;4.90;;;;;;;18.04;85.46;101764.00;5001133;28;20388;-50
2023/06/28 08:51:22;;;;;;;12.40;5.38;;;;;;;18.15;84.17;101760.28;4999930;28;20038;-49
2023/06/28 08:53:48;;;;;;;13.32;4.80;;;;;;;18.24;83.71;101772.88;4999476;28;20022;-61
2023/06/28 08:56:15;;;;;;;7.78;4.75;;;;;;;18.33;83.20;101768.47;5001310;28;20048;-48
2023/06/28 08:58:44;;;;;;;10.13;4.90;;;;;;;18.47;82.58;101772.53;5001153;28;20471;-48
2023/06/28 09:01:11;;;;;;;14.98;4.90;;;;;;;18.59;82.61;101765.13;4996532;28;20498;-48
2023/06/28 09:03:40;;;;;;;14.73;5.25;;;;;;;18.69;80.90;101768.63;5001798;28;20472;-48
2023/06/28 09:06:06;;;;;;;9.38;4.47;;;;;;;18.80;79.86;101767.56;4993813;28;20042;-48
2023/06/28 09:08:33;;;;;;;9.65;4.53;;;;;;;18.91;80.93;101767.41;5001420;28;20054;-49
2023/06/28 09:11:00;;;;;;;11.20;4.40;;;;;;;19.02;79.10;101763.69;4999278;28;20034;-50
2023/06/28 09:13:27;;;;;;;7.75;4.32;;;;;;;19.11;77.67;101759.22;4996217;28;20040;-48
2023/06/28 09:15:53;;;;;;;8.35;4.00;;;;;;;19.22;76.13;101764.41;4998717;28;20487;-48
2023/06/28 09:18:19;;;;;;;9.25;3.80;;;;;;;19.34;76.68;101751.56;5001999;28;20022;-48
2023/06/28 09:20:49;;;;;;;8.93;4.13;;;;;;;19.35;74.29;101758.63;4993704;28;20382;-48
2023/06/28 09:23:22;;;;;;;9.05;4.25;;;;;;;19.41;75.61;101756.16;5003595;28;20030;-48
2023/06/28 09:25:49;;;;;;;11.68;4.38;;;;;;;19.48;74.63;101760.94;5000765;28;20038;-50
2023/06/28 09:28:15;;;;;;;10.43;4.20;;;;;;;19.57;75.45;101757.34;4985681;28;20030;-48
2023/06/28 09:30:40;;;;;;;14.25;4.78;;;;;;;19.67;74.73;101755.41;4996876;28;20024;-48
2023/06/28 09:33:06;;;;;;;9.00;4.00;;;;;;;19.68;72.40;101762.47;5001076;28;20069;-47
2023/06/28 09:35:31;;;;;;;9.75;4.15;;;;;;;19.78;74.66;101757.91;4997966;28;20045;-48
2023/06/28 09:38:04;;;;;;;12.00;4.00;;;;;;;19.89;72.60;101766.75;5001665;28;20093;-49
2023/06/28 09:40:33;;;;;;;9.32;3.70;;;;;;;20.01;74.41;101761.94;4994692;28;20365;-48
2023/06/28 09:42:58;;;;;;;15.45;4.10;;;;;;;20.14;71.45;101763.22;5001695;28;20054;-49
2023/06/28 09:45:24;;;;;;;10.57;3.58;;;;;;;20.28;71.75;101764.50;5001939;28;20077;-48
2023/06/28 09:47:57;;;;;;;9.73;4.47;;;;;;;20.42;72.56;101757.66;5000547;28;20464;-48
2023/06/28 09:50:47;;;;;;;8.05;3.63;;;;;;;20.52;71.62;101758.38;5000101;28;20027;-48
2023/06/28 09:53:19;;;;;;;11.07;4.20;;;;;;;20.61;69.25;101753.03;4989488;28;20045;-48
2023/06/28 09:55:45;;;;;;;9.38;3.45;;;;;;;20.73;69.95;101756.31;4999807;28;20435;-49
2023/06/28 09:58:13;;;;;;;10.80;3.45;;;;;;;20.86;67.45;101751.31;5003383;28;20045;-49
2023/06/28 10:00:40;;;;;;;9.60;3.05;;;;;;;20.97;67.21;101742.06;4996629;28;20436;-49
2023/06/28 10:03:07;;;;;;;8.07;3.47;;;;;;;21.17;65.91;101739.94;5002005;28;20045;-48
2023/06/28 10:05:35;;;;;;;9.13;3.47;;;;;;;21.49;66.75;101741.84;4999789;28;20397;-49
2023/06/28 10:08:11;;;;;;;7.25;3.33;;;;;;;21.62;63.91;101749.47;5000328;28;20045;-48
2023/06/28 10:10:38;;;;;;;7.95;3.28;;;;;;;21.75;64.16;101741.69;5001043;28;20037;-49
2023/06/28 10:13:07;;;;;;;6.63;3.10;;;;;;;21.92;65.04;101747.94;5002664;28;20050;-48
2023/06/28 10:16:13;;;;;;;5.57;3.30;;;;;;;22.12;63.80;101739.47;4992811;28;20508;-49
2023/06/28 10:18:41;;;;;;;8.32;2.97;;;;;;;22.23;61.25;101744.50;4993815;28;20558;-48
2023/06/28 10:21:07;;;;;;;10.63;3.50;;;;;;;22.28;60.78;101735.88;4998289;28;20040;-49
2023/06/28 10:23:36;;;;;;;9.23;2.88;;;;;;;22.44;59.39;101735.00;5003140;28;20049;-49
2023/06/28 10:26:05;;;;;;;;;;;;;;;22.65;63.59;101731.69;4999726;28;20100;-49
2023/06/28 10:28:34;;;;;;;8.95;3.17;;;;;;;22.72;59.72;101727.28;5001563;28;19918;-49
2023/06/28 10:31:00;;;;;;;;;;;;;;;22.96;63.15;101730.88;5000596;28;20030;-49
2023/06/28 10:33:31;;;;;;;7.63;3.40;;;;;;;23.04;59.13;101739.81;5000730;28;20432;-48
2023/06/28 10:36:00;;;;;;;7.88;3.15;;;;;;;23.27;58.74;101734.44;5000642;28;20061;-49
2023/06/28 10:38:26;;;;;;;7.05;2.88;;;;;;;23.56;58.15;101723.91;4997585;28;20125;-48
2023/06/28 10:40:52;;;;;;;9.85;3.33;;;;;;;23.66;55.38;101729.91;5000462;28;20022;-49
2023/06/28 10:43:22;;;;;;;7.72;3.50;;;;;;;23.88;55.94;101725.53;4994601;28;20033;-48
2023/06/28 10:45:47;;;;;;;9.55;3.22;;;;;;;24.18;57.29;101729.13;5000695;28;20026;-48
2023/06/28 10:48:18;;;;;;;12.05;3.28;;;;;;;24.40;55.59;101718.34;4998444;28;20037;-48
2023/06/28 10:50:43;;;;;;;8.77;3.20;;;;;;;24.73;55.61;101720.66;4997020;28;21253;-49
2023/06/28 10:53:23;;;;;;;9.25;3.10;;;;;;;25.23;55.53;101718.97;5000240;28;20113;-48
2023/06/28 10:56:05;;;;;;;8.35;3.45;;;;;;;25.73;52.89;101719.03;4997755;28;20073;-48
2023/06/28 10:58:39;;;;;;;11.15;3.25;;;;;;;26.12;50.63;101712.19;4996025;28;20114;-49
2023/06/28 11:01:26;;;;;;;7.57;3.13;;;;;;;26.30;51.28;101711.69;4999241;28;20030;-49
2023/06/28 11:03:51;;;;;;;7.75;3.30;;;;;;;26.40;49.28;101720.31;4993006;28;20061;-49
2023/06/28 11:06:17;;;;;;;6.45;3.20;;;;;;;26.31;48.38;101713.38;5000161;28;20029;-48
2023/06/28 11:08:44;;;;;;;11.52;3.80;;;;;;;26.31;48.45;101705.22;4994290;28;20033;-48
2023/06/28 11:11:31;;;;;;;7.32;3.50;;;;;;;26.42;50.93;101706.50;4999497;28;20113;-49
2023/06/28 11:13:57;;;;;;;9.52;3.60;;;;;;;26.30;47.43;101695.34;4998312;28;20049;-50
2023/06/28 11:16:24;;;;;;;7.22;3.22;;;;;;;26.31;49.02;101701.63;4997439;28;20023;-51
2023/06/28 11:18:51;;;;;;;13.02;4.03;;;;;;;26.49;48.92;101709.25;4995161;28;20405;-49